sensor_id;sensor_type;location;lat;lon;timestamp;temperature;humidity
47576;DHT22;33304;52.456;13.328;2024-03-29T00:01:56;9.30;17.50
47576;DHT22;33304;52.456;13.328;2024-03-29T00:04:22;9.40;17.50
47576;DHT22;33304;52.456;13.328;2024-03-29T00:06:48;9.30;18.10
47576;DHT22;33304;52.456;13.328;2024-03-29T00:09:14;9.40;17.40
47576;DHT22;33304;52.456;13.328;2024-03-29T00:11:41;9.40;17.10
47576;DHT22;33304;52.456;13.328;2024-03-29T00:14:07;9.40;16.90
47576;DHT22;33304;52.456;13.328;2024-03-29T00:16:33;9.50;16.10
47576;DHT22;33304;52.456;13.328;2024-03-29T00:19:00;9.50;14.90
47576;DHT22;33304;52.456;13.328;2024-03-29T00:21:27;9.60;15.00
47576;DHT22;33304;52.456;13.328;2024-03-29T00:23:53;9.70;13.80
47576;DHT22;33304;52.456;13.328;2024-03-29T00:26:19;9.70;12.90
47576;DHT22;33304;52.456;13.328;2024-03-29T00:28:45;9.70;13.70
47576;DHT22;33304;52.456;13.328;2024-03-29T00:31:11;9.50;16.30
47576;DHT22;33304;52.456;13.328;2024-03-29T00:33:38;9.40;18.40
47576;DHT22;33304;52.456;13.328;2024-03-29T00:36:05;9.10;23.50
47576;DHT22;33304;52.456;13.328;2024-03-29T00:38:32;9.00;25.20
47576;DHT22;33304;52.456;13.328;2024-03-29T00:40:58;8.90;28.50
47576;DHT22;33304;52.456;13.328;2024-03-29T00:43:24;8.70;31.40
47576;DHT22;33304;52.456;13.328;2024-03-29T00:45:50;8.70;33.00
47576;DHT22;33304;52.456;13.328;2024-03-29T00:48:17;8.50;36.70
47576;DHT22;33304;52.456;13.328;2024-03-29T00:50:43;8.50;37.20
47576;DHT22;33304;52.456;13.328;2024-03-29T00:53:11;8.50;38.20
47576;DHT22;33304;52.456;13.328;2024-03-29T00:55:37;8.40;42.80
47576;DHT22;33304;52.456;13.328;2024-03-29T00:58:03;8.20;48.30
47576;DHT22;33304;52.456;13.328;2024-03-29T01:00:30;8.20;49.60
47576;DHT22;33304;52.456;13.328;2024-03-29T01:02:56;8.20;50.10
47576;DHT22;33304;52.456;13.328;2024-03-29T01:05:22;8.20;51.00
47576;DHT22;33304;52.456;13.328;2024-03-29T01:07:48;8.10;58.20
47576;DHT22;33304;52.456;13.328;2024-03-29T01:10:16;8.00;59.20
47576;DHT22;33304;52.456;13.328;2024-03-29T01:12:42;8.00;64.60
47576;DHT22;33304;52.456;13.328;2024-03-29T01:15:08;8.00;64.40
47576;DHT22;33304;52.456;13.328;2024-03-29T01:17:35;7.80;68.80
47576;DHT22;33304;52.456;13.328;2024-03-29T01:20:01;7.70;75.00
47576;DHT22;33304;52.456;13.328;2024-03-29T01:22:27;7.70;80.20
47576;DHT22;33304;52.456;13.328;2024-03-29T01:24:53;7.70;81.00
47576;DHT22;33304;52.456;13.328;2024-03-29T01:27:21;7.80;77.80
47576;DHT22;33304;52.456;13.328;2024-03-29T01:29:47;7.70;79.90
47576;DHT22;33304;52.456;13.328;2024-03-29T01:32:13;7.60;81.60
47576;DHT22;33304;52.456;13.328;2024-03-29T01:34:39;7.60;81.10
47576;DHT22;33304;52.456;13.328;2024-03-29T01:37:06;7.60;80.40
47576;DHT22;33304;52.456;13.328;2024-03-29T01:39:32;7.60;80.20
47576;DHT22;33304;52.456;13.328;2024-03-29T01:41:58;7.50;80.90
47576;DHT22;33304;52.456;13.328;2024-03-29T01:44:26;7.50;80.20
47576;DHT22;33304;52.456;13.328;2024-03-29T01:46:53;7.50;78.80
47576;DHT22;33304;52.456;13.328;2024-03-29T01:49:20;7.50;77.60
47576;DHT22;33304;52.456;13.328;2024-03-29T01:51:47;7.40;79.00
47576;DHT22;33304;52.456;13.328;2024-03-29T01:54:15;7.40;79.60
47576;DHT22;33304;52.456;13.328;2024-03-29T01:56:42;7.40;78.30
47576;DHT22;33304;52.456;13.328;2024-03-29T01:59:13;7.30;79.80
47576;DHT22;33304;52.456;13.328;2024-03-29T02:01:42;7.40;79.30
47576;DHT22;33304;52.456;13.328;2024-03-29T02:04:09;7.40;77.40
47576;DHT22;33304;52.456;13.328;2024-03-29T02:06:37;7.50;74.90
47576;DHT22;33304;52.456;13.328;2024-03-29T02:09:04;7.40;74.80
47576;DHT22;33304;52.456;13.328;2024-03-29T02:11:31;7.40;74.80
47576;DHT22;33304;52.456;13.328;2024-03-29T02:13:58;7.40;73.90
47576;DHT22;33304;52.456;13.328;2024-03-29T02:16:26;7.30;71.00
47576;DHT22;33304;52.456;13.328;2024-03-29T02:18:54;7.30;72.20
47576;DHT22;33304;52.456;13.328;2024-03-29T02:21:21;7.30;69.40
47576;DHT22;33304;52.456;13.328;2024-03-29T02:23:58;7.30;68.20
47576;DHT22;33304;52.456;13.328;2024-03-29T02:26:26;7.30;68.10
47576;DHT22;33304;52.456;13.328;2024-03-29T02:28:57;7.40;66.30
47576;DHT22;33304;52.456;13.328;2024-03-29T02:31:24;7.50;57.00
47576;DHT22;33304;52.456;13.328;2024-03-29T02:33:51;7.40;58.60
47576;DHT22;33304;52.456;13.328;2024-03-29T02:36:18;7.30;58.50
47576;DHT22;33304;52.456;13.328;2024-03-29T02:38:45;7.30;57.90
47576;DHT22;33304;52.456;13.328;2024-03-29T02:41:14;7.30;56.90
47576;DHT22;33304;52.456;13.328;2024-03-29T02:43:41;7.30;58.50
47576;DHT22;33304;52.456;13.328;2024-03-29T02:46:07;7.30;57.60
47576;DHT22;33304;52.456;13.328;2024-03-29T02:48:34;7.20;58.50
47576;DHT22;33304;52.456;13.328;2024-03-29T02:51:00;7.10;60.70
47576;DHT22;33304;52.456;13.328;2024-03-29T02:53:27;7.10;61.30
47576;DHT22;33304;52.456;13.328;2024-03-29T02:55:53;6.90;63.60
47576;DHT22;33304;52.456;13.328;2024-03-29T02:58:22;7.00;63.90
47576;DHT22;33304;52.456;13.328;2024-03-29T03:00:48;7.00;62.30
47576;DHT22;33304;52.456;13.328;2024-03-29T03:03:16;7.00;63.70
47576;DHT22;33304;52.456;13.328;2024-03-29T03:05:42;6.90;63.60
47576;DHT22;33304;52.456;13.328;2024-03-29T03:08:09;6.80;63.80
47576;DHT22;33304;52.456;13.328;2024-03-29T03:10:54;6.80;65.40
47576;DHT22;33304;52.456;13.328;2024-03-29T03:13:27;6.80;64.80
47576;DHT22;33304;52.456;13.328;2024-03-29T03:15:55;6.90;63.70
47576;DHT22;33304;52.456;13.328;2024-03-29T03:18:22;6.90;61.70
47576;DHT22;33304;52.456;13.328;2024-03-29T03:20:52;6.80;63.50
47576;DHT22;33304;52.456;13.328;2024-03-29T03:23:19;6.70;63.60
47576;DHT22;33304;52.456;13.328;2024-03-29T03:25:52;6.60;65.60
47576;DHT22;33304;52.456;13.328;2024-03-29T03:28:20;6.60;63.40
47576;DHT22;33304;52.456;13.328;2024-03-29T03:30:47;6.60;63.40
47576;DHT22;33304;52.456;13.328;2024-03-29T03:33:15;6.60;63.50
47576;DHT22;33304;52.456;13.328;2024-03-29T03:35:41;6.60;62.50
47576;DHT22;33304;52.456;13.328;2024-03-29T03:38:08;6.70;62.50
47576;DHT22;33304;52.456;13.328;2024-03-29T03:40:35;6.70;61.60
47576;DHT22;33304;52.456;13.328;2024-03-29T03:43:02;6.60;59.70
47576;DHT22;33304;52.456;13.328;2024-03-29T03:45:33;6.60;60.90
47576;DHT22;33304;52.456;13.328;2024-03-29T03:48:02;6.70;58.10
47576;DHT22;33304;52.456;13.328;2024-03-29T03:50:28;6.60;57.90
47576;DHT22;33304;52.456;13.328;2024-03-29T03:52:55;6.70;56.10
47576;DHT22;33304;52.456;13.328;2024-03-29T03:55:21;6.60;56.50
47576;DHT22;33304;52.456;13.328;2024-03-29T03:57:48;6.50;57.70
47576;DHT22;33304;52.456;13.328;2024-03-29T04:00:15;6.50;57.90
47576;DHT22;33304;52.456;13.328;2024-03-29T04:02:42;6.40;57.90
47576;DHT22;33304;52.456;13.328;2024-03-29T04:05:13;6.40;57.80
47576;DHT22;33304;52.456;13.328;2024-03-29T04:07:40;6.40;57.70
47576;DHT22;33304;52.456;13.328;2024-03-29T04:10:07;6.40;57.30
47576;DHT22;33304;52.456;13.328;2024-03-29T04:12:34;6.40;57.80
47576;DHT22;33304;52.456;13.328;2024-03-29T04:15:00;6.30;57.40
47576;DHT22;33304;52.456;13.328;2024-03-29T04:17:29;6.30;57.10
47576;DHT22;33304;52.456;13.328;2024-03-29T04:19:56;6.30;57.40
47576;DHT22;33304;52.456;13.328;2024-03-29T04:22:27;6.30;57.70
47576;DHT22;33304;52.456;13.328;2024-03-29T04:24:53;6.30;55.30
47576;DHT22;33304;52.456;13.328;2024-03-29T04:27:20;6.40;56.50
47576;DHT22;33304;52.456;13.328;2024-03-29T04:29:46;6.40;55.40
47576;DHT22;33304;52.456;13.328;2024-03-29T04:32:13;6.40;53.80
47576;DHT22;33304;52.456;13.328;2024-03-29T04:34:39;6.30;53.60
47576;DHT22;33304;52.456;13.328;2024-03-29T04:37:06;6.30;54.00
47576;DHT22;33304;52.456;13.328;2024-03-29T04:39:35;6.30;54.90
47576;DHT22;33304;52.456;13.328;2024-03-29T04:42:02;6.20;55.50
47576;DHT22;33304;52.456;13.328;2024-03-29T04:44:29;6.20;55.40
47576;DHT22;33304;52.456;13.328;2024-03-29T04:46:56;6.20;55.50
47576;DHT22;33304;52.456;13.328;2024-03-29T04:49:23;6.20;55.70
47576;DHT22;33304;52.456;13.328;2024-03-29T04:51:56;6.20;56.00
47576;DHT22;33304;52.456;13.328;2024-03-29T04:54:23;6.10;57.20
47576;DHT22;33304;52.456;13.328;2024-03-29T04:56:52;6.10;56.00
47576;DHT22;33304;52.456;13.328;2024-03-29T04:59:19;6.10;56.50
47576;DHT22;33304;52.456;13.328;2024-03-29T05:01:46;6.10;55.80
47576;DHT22;33304;52.456;13.328;2024-03-29T05:04:16;6.20;55.70
47576;DHT22;33304;52.456;13.328;2024-03-29T05:06:51;6.20;55.60
47576;DHT22;33304;52.456;13.328;2024-03-29T05:09:19;6.20;55.60
47576;DHT22;33304;52.456;13.328;2024-03-29T05:11:46;6.20;54.80
47576;DHT22;33304;52.456;13.328;2024-03-29T05:14:15;6.20;53.30
47576;DHT22;33304;52.456;13.328;2024-03-29T05:16:42;6.20;52.10
47576;DHT22;33304;52.456;13.328;2024-03-29T05:19:09;6.20;52.10
47576;DHT22;33304;52.456;13.328;2024-03-29T05:21:36;6.20;52.20
47576;DHT22;33304;52.456;13.328;2024-03-29T05:24:04;6.30;51.90
47576;DHT22;33304;52.456;13.328;2024-03-29T05:26:31;6.30;51.60
47576;DHT22;33304;52.456;13.328;2024-03-29T05:28:58;6.30;51.10
47576;DHT22;33304;52.456;13.328;2024-03-29T05:31:27;6.50;47.90
47576;DHT22;33304;52.456;13.328;2024-03-29T05:33:54;6.40;46.60
47576;DHT22;33304;52.456;13.328;2024-03-29T05:36:21;6.40;46.80
47576;DHT22;33304;52.456;13.328;2024-03-29T05:38:48;6.60;46.70
47576;DHT22;33304;52.456;13.328;2024-03-29T05:41:15;6.60;44.00
47576;DHT22;33304;52.456;13.328;2024-03-29T05:43:43;6.50;42.60
47576;DHT22;33304;52.456;13.328;2024-03-29T05:46:10;6.50;45.00
47576;DHT22;33304;52.456;13.328;2024-03-29T05:48:38;6.40;44.10
47576;DHT22;33304;52.456;13.328;2024-03-29T05:51:05;6.50;44.40
47576;DHT22;33304;52.456;13.328;2024-03-29T05:53:32;6.40;44.60
47576;DHT22;33304;52.456;13.328;2024-03-29T05:55:59;6.40;45.50
47576;DHT22;33304;52.456;13.328;2024-03-29T05:58:26;6.50;45.30
47576;DHT22;33304;52.456;13.328;2024-03-29T06:00:53;6.50;45.60
47576;DHT22;33304;52.456;13.328;2024-03-29T06:03:20;6.60;44.60
47576;DHT22;33304;52.456;13.328;2024-03-29T06:05:49;6.70;41.30
47576;DHT22;33304;52.456;13.328;2024-03-29T06:08:16;6.80;41.00
47576;DHT22;33304;52.456;13.328;2024-03-29T06:10:43;6.80;41.40
47576;DHT22;33304;52.456;13.328;2024-03-29T06:13:11;6.80;36.60
47576;DHT22;33304;52.456;13.328;2024-03-29T06:15:53;6.90;36.40
47576;DHT22;33304;52.456;13.328;2024-03-29T06:18:38;6.90;35.80
47576;DHT22;33304;52.456;13.328;2024-03-29T06:21:06;7.10;35.90
47576;DHT22;33304;52.456;13.328;2024-03-29T06:23:33;7.20;34.40
47576;DHT22;33304;52.456;13.328;2024-03-29T06:26:00;7.20;33.00
47576;DHT22;33304;52.456;13.328;2024-03-29T06:28:28;7.20;31.50
47576;DHT22;33304;52.456;13.328;2024-03-29T06:30:55;7.20;31.00
47576;DHT22;33304;52.456;13.328;2024-03-29T06:33:22;7.30;30.30
47576;DHT22;33304;52.456;13.328;2024-03-29T06:35:53;7.50;30.40
47576;DHT22;33304;52.456;13.328;2024-03-29T06:38:21;7.50;29.90
47576;DHT22;33304;52.456;13.328;2024-03-29T06:40:48;7.50;29.10
47576;DHT22;33304;52.456;13.328;2024-03-29T06:43:16;7.50;28.00
47576;DHT22;33304;52.456;13.328;2024-03-29T06:45:43;7.60;28.20
47576;DHT22;33304;52.456;13.328;2024-03-29T06:48:10;7.60;27.40
47576;DHT22;33304;52.456;13.328;2024-03-29T06:50:37;7.70;26.40
47576;DHT22;33304;52.456;13.328;2024-03-29T06:53:06;7.70;27.20
47576;DHT22;33304;52.456;13.328;2024-03-29T06:55:36;7.90;24.40
47576;DHT22;33304;52.456;13.328;2024-03-29T06:58:04;8.10;24.20
47576;DHT22;33304;52.456;13.328;2024-03-29T07:00:31;8.10;23.70
47576;DHT22;33304;52.456;13.328;2024-03-29T07:02:58;8.20;21.60
47576;DHT22;33304;52.456;13.328;2024-03-29T07:05:25;8.20;21.60
47576;DHT22;33304;52.456;13.328;2024-03-29T07:07:52;8.40;21.70
47576;DHT22;33304;52.456;13.328;2024-03-29T07:10:20;8.30;21.60
47576;DHT22;33304;52.456;13.328;2024-03-29T07:12:48;8.40;21.70
47576;DHT22;33304;52.456;13.328;2024-03-29T07:15:15;8.60;19.60
47576;DHT22;33304;52.456;13.328;2024-03-29T07:17:42;8.60;19.40
47576;DHT22;33304;52.456;13.328;2024-03-29T07:20:10;8.60;18.90
47576;DHT22;33304;52.456;13.328;2024-03-29T07:22:37;8.70;17.10
47576;DHT22;33304;52.456;13.328;2024-03-29T07:25:05;8.90;16.00
47576;DHT22;33304;52.456;13.328;2024-03-29T07:27:32;8.90;14.90
47576;DHT22;33304;52.456;13.328;2024-03-29T07:30:02;9.00;16.10
47576;DHT22;33304;52.456;13.328;2024-03-29T07:32:30;9.00;15.00
47576;DHT22;33304;52.456;13.328;2024-03-29T07:34:58;9.10;14.70
47576;DHT22;33304;52.456;13.328;2024-03-29T07:37:25;9.20;14.20
47576;DHT22;33304;52.456;13.328;2024-03-29T07:39:52;9.20;14.40
47576;DHT22;33304;52.456;13.328;2024-03-29T07:42:19;9.30;13.60
47576;DHT22;33304;52.456;13.328;2024-03-29T07:44:46;9.50;13.20
47576;DHT22;33304;52.456;13.328;2024-03-29T07:47:15;9.50;13.40
47576;DHT22;33304;52.456;13.328;2024-03-29T07:49:42;9.50;12.80
47576;DHT22;33304;52.456;13.328;2024-03-29T07:52:09;9.50;12.60
47576;DHT22;33304;52.456;13.328;2024-03-29T07:54:36;9.60;12.50
47576;DHT22;33304;52.456;13.328;2024-03-29T07:57:04;9.60;10.90
47576;DHT22;33304;52.456;13.328;2024-03-29T07:59:34;9.80;9.80
47576;DHT22;33304;52.456;13.328;2024-03-29T08:02:01;9.70;11.00
47576;DHT22;33304;52.456;13.328;2024-03-29T08:04:30;9.80;10.90
47576;DHT22;33304;52.456;13.328;2024-03-29T08:06:57;9.80;11.00
47576;DHT22;33304;52.456;13.328;2024-03-29T08:09:24;9.80;11.90
47576;DHT22;33304;52.456;13.328;2024-03-29T08:11:51;9.80;12.50
47576;DHT22;33304;52.456;13.328;2024-03-29T08:14:18;9.80;13.00
47576;DHT22;33304;52.456;13.328;2024-03-29T08:16:45;9.90;13.10
47576;DHT22;33304;52.456;13.328;2024-03-29T08:19:12;9.90;13.10
47576;DHT22;33304;52.456;13.328;2024-03-29T08:21:40;9.80;13.00
47576;DHT22;33304;52.456;13.328;2024-03-29T08:24:07;9.70;13.20
47576;DHT22;33304;52.456;13.328;2024-03-29T08:26:35;9.80;14.10
47576;DHT22;33304;52.456;13.328;2024-03-29T08:29:02;9.80;13.10
47576;DHT22;33304;52.456;13.328;2024-03-29T08:31:29;9.90;13.60
47576;DHT22;33304;52.456;13.328;2024-03-29T08:33:56;10.30;12.50
47576;DHT22;33304;52.456;13.328;2024-03-29T08:36:24;10.30;12.50
47576;DHT22;33304;52.456;13.328;2024-03-29T08:38:52;10.40;12.60
47576;DHT22;33304;52.456;13.328;2024-03-29T08:41:19;10.50;10.70
47576;DHT22;33304;52.456;13.328;2024-03-29T08:43:46;10.60;12.50
47576;DHT22;33304;52.456;13.328;2024-03-29T08:46:13;10.60;12.70
47576;DHT22;33304;52.456;13.328;2024-03-29T08:48:40;10.70;10.40
47576;DHT22;33304;52.456;13.328;2024-03-29T08:51:09;10.70;9.20
47576;DHT22;33304;52.456;13.328;2024-03-29T08:53:36;10.70;10.00
47576;DHT22;33304;52.456;13.328;2024-03-29T08:56:05;10.80;10.30
47576;DHT22;33304;52.456;13.328;2024-03-29T08:58:32;11.10;9.10
47576;DHT22;33304;52.456;13.328;2024-03-29T09:00:59;11.30;9.00
47576;DHT22;33304;52.456;13.328;2024-03-29T09:03:30;11.30;8.30
47576;DHT22;33304;52.456;13.328;2024-03-29T09:05:57;11.00;7.80
47576;DHT22;33304;52.456;13.328;2024-03-29T09:08:24;10.90;8.40
47576;DHT22;33304;52.456;13.328;2024-03-29T09:10:51;11.00;9.10
47576;DHT22;33304;52.456;13.328;2024-03-29T09:13:20;11.00;9.40
47576;DHT22;33304;52.456;13.328;2024-03-29T09:15:47;11.00;8.30
47576;DHT22;33304;52.456;13.328;2024-03-29T09:18:16;11.10;7.80
47576;DHT22;33304;52.456;13.328;2024-03-29T09:20:56;11.10;8.10
47576;DHT22;33304;52.456;13.328;2024-03-29T09:23:23;11.20;8.10
47576;DHT22;33304;52.456;13.328;2024-03-29T09:25:51;11.30;7.80
47576;DHT22;33304;52.456;13.328;2024-03-29T09:28:19;11.30;7.80
47576;DHT22;33304;52.456;13.328;2024-03-29T09:30:47;11.30;8.30
47576;DHT22;33304;52.456;13.328;2024-03-29T09:33:14;11.40;8.50
47576;DHT22;33304;52.456;13.328;2024-03-29T09:35:41;11.40;8.30
47576;DHT22;33304;52.456;13.328;2024-03-29T09:38:09;11.50;8.50
47576;DHT22;33304;52.456;13.328;2024-03-29T09:40:36;11.50;7.80
47576;DHT22;33304;52.456;13.328;2024-03-29T09:43:04;11.60;7.50
47576;DHT22;33304;52.456;13.328;2024-03-29T09:45:33;11.70;7.90
47576;DHT22;33304;52.456;13.328;2024-03-29T09:48:03;11.70;6.70
47576;DHT22;33304;52.456;13.328;2024-03-29T09:50:31;11.80;6.80
47576;DHT22;33304;52.456;13.328;2024-03-29T09:52:59;11.80;6.50
47576;DHT22;33304;52.456;13.328;2024-03-29T09:55:27;11.80;4.40
47576;DHT22;33304;52.456;13.328;2024-03-29T09:57:55;11.80;3.60
47576;DHT22;33304;52.456;13.328;2024-03-29T10:00:23;11.70;3.90
47576;DHT22;33304;52.456;13.328;2024-03-29T10:02:53;11.80;4.10
47576;DHT22;33304;52.456;13.328;2024-03-29T10:05:22;11.90;3.60
47576;DHT22;33304;52.456;13.328;2024-03-29T10:07:50;11.90;3.70
47576;DHT22;33304;52.456;13.328;2024-03-29T10:10:17;12.10;3.80
47576;DHT22;33304;52.456;13.328;2024-03-29T10:12:44;12.00;4.70
47576;DHT22;33304;52.456;13.328;2024-03-29T10:15:12;11.80;3.60
47576;DHT22;33304;52.456;13.328;2024-03-29T10:17:45;11.70;5.60
47576;DHT22;33304;52.456;13.328;2024-03-29T10:20:17;11.70;6.80
47576;DHT22;33304;52.456;13.328;2024-03-29T10:22:45;11.40;9.00
47576;DHT22;33304;52.456;13.328;2024-03-29T10:25:13;11.50;9.80
47576;DHT22;33304;52.456;13.328;2024-03-29T10:27:41;11.40;11.80
47576;DHT22;33304;52.456;13.328;2024-03-29T10:30:09;11.40;12.00
47576;DHT22;33304;52.456;13.328;2024-03-29T10:32:37;11.50;12.60
47576;DHT22;33304;52.456;13.328;2024-03-29T10:35:06;11.30;12.20
47576;DHT22;33304;52.456;13.328;2024-03-29T10:37:35;11.30;13.20
47576;DHT22;33304;52.456;13.328;2024-03-29T10:40:07;11.40;13.30
47576;DHT22;33304;52.456;13.328;2024-03-29T10:42:36;11.30;13.20
47576;DHT22;33304;52.456;13.328;2024-03-29T10:45:05;11.20;13.20
47576;DHT22;33304;52.456;13.328;2024-03-29T10:47:33;11.30;15.10
47576;DHT22;33304;52.456;13.328;2024-03-29T10:50:01;11.30;13.30
47576;DHT22;33304;52.456;13.328;2024-03-29T10:52:28;11.20;17.70
47576;DHT22;33304;52.456;13.328;2024-03-29T10:54:57;11.20;18.40
47576;DHT22;33304;52.456;13.328;2024-03-29T10:57:25;11.30;19.40
47576;DHT22;33304;52.456;13.328;2024-03-29T11:00:00;11.30;18.80
47576;DHT22;33304;52.456;13.328;2024-03-29T11:02:48;11.40;19.60
47576;DHT22;33304;52.456;13.328;2024-03-29T11:05:16;11.40;21.30
47576;DHT22;33304;52.456;13.328;2024-03-29T11:07:44;11.70;19.90
47576;DHT22;33304;52.456;13.328;2024-03-29T11:10:16;11.80;19.40
47576;DHT22;33304;52.456;13.328;2024-03-29T11:12:50;11.70;17.30
47576;DHT22;33304;52.456;13.328;2024-03-29T11:15:28;11.80;18.90
47576;DHT22;33304;52.456;13.328;2024-03-29T11:17:55;12.10;17.90
47576;DHT22;33304;52.456;13.328;2024-03-29T11:20:25;12.20;16.90
47576;DHT22;33304;52.456;13.328;2024-03-29T11:23:03;12.10;15.60
47576;DHT22;33304;52.456;13.328;2024-03-29T11:25:40;12.10;16.30
47576;DHT22;33304;52.456;13.328;2024-03-29T11:28:07;12.30;14.70
47576;DHT22;33304;52.456;13.328;2024-03-29T11:30:42;12.30;15.70
47576;DHT22;33304;52.456;13.328;2024-03-29T11:33:30;12.30;15.00
47576;DHT22;33304;52.456;13.328;2024-03-29T11:35:57;12.30;15.40
47576;DHT22;33304;52.456;13.328;2024-03-29T11:38:33;12.30;14.00
47576;DHT22;33304;52.456;13.328;2024-03-29T11:41:06;12.20;14.40
47576;DHT22;33304;52.456;13.328;2024-03-29T11:43:34;12.30;14.00
47576;DHT22;33304;52.456;13.328;2024-03-29T11:46:05;12.20;15.10
47576;DHT22;33304;52.456;13.328;2024-03-29T11:48:32;12.10;13.90
47576;DHT22;33304;52.456;13.328;2024-03-29T11:51:00;12.20;14.60
47576;DHT22;33304;52.456;13.328;2024-03-29T11:53:27;12.20;14.40
47576;DHT22;33304;52.456;13.328;2024-03-29T11:55:56;12.20;15.30
47576;DHT22;33304;52.456;13.328;2024-03-29T11:58:26;12.10;15.20
47576;DHT22;33304;52.456;13.328;2024-03-29T12:00:55;12.20;15.00
47576;DHT22;33304;52.456;13.328;2024-03-29T12:03:25;12.10;16.60
47576;DHT22;33304;52.456;13.328;2024-03-29T12:05:54;12.10;16.80
47576;DHT22;33304;52.456;13.328;2024-03-29T12:08:24;12.10;15.70
47576;DHT22;33304;52.456;13.328;2024-03-29T12:10:52;12.20;16.10
47576;DHT22;33304;52.456;13.328;2024-03-29T12:13:19;12.20;15.90
47576;DHT22;33304;52.456;13.328;2024-03-29T12:15:47;12.20;16.40
47576;DHT22;33304;52.456;13.328;2024-03-29T12:18:14;12.20;16.40
47576;DHT22;33304;52.456;13.328;2024-03-29T12:20:43;12.20;16.40
47576;DHT22;33304;52.456;13.328;2024-03-29T12:23:12;12.40;17.00
47576;DHT22;33304;52.456;13.328;2024-03-29T12:25:40;12.60;16.50
47576;DHT22;33304;52.456;13.328;2024-03-29T12:28:07;12.80;15.40
47576;DHT22;33304;52.456;13.328;2024-03-29T12:30:34;12.80;14.30
47576;DHT22;33304;52.456;13.328;2024-03-29T12:33:04;12.90;14.40
47576;DHT22;33304;52.456;13.328;2024-03-29T12:35:33;13.00;12.20
47576;DHT22;33304;52.456;13.328;2024-03-29T12:38:01;13.20;10.50
47576;DHT22;33304;52.456;13.328;2024-03-29T12:40:31;13.20;10.30
47576;DHT22;33304;52.456;13.328;2024-03-29T12:43:03;13.40;9.90
47576;DHT22;33304;52.456;13.328;2024-03-29T12:45:31;13.80;7.90
47576;DHT22;33304;52.456;13.328;2024-03-29T12:47:58;13.90;7.10
47576;DHT22;33304;52.456;13.328;2024-03-29T12:50:28;14.00;5.80
47576;DHT22;33304;52.456;13.328;2024-03-29T12:52:57;14.20;5.40
47576;DHT22;33304;52.456;13.328;2024-03-29T12:55:25;14.40;6.00
47576;DHT22;33304;52.456;13.328;2024-03-29T12:57:54;14.40;4.10
47576;DHT22;33304;52.456;13.328;2024-03-29T13:00:21;14.30;3.80
47576;DHT22;33304;52.456;13.328;2024-03-29T13:02:49;14.40;3.20
47576;DHT22;33304;52.456;13.328;2024-03-29T13:05:16;14.30;2.40
47576;DHT22;33304;52.456;13.328;2024-03-29T13:07:44;14.30;2.10
47576;DHT22;33304;52.456;13.328;2024-03-29T13:10:12;14.20;1.70
47576;DHT22;33304;52.456;13.328;2024-03-29T13:12:41;14.40;1.60
47576;DHT22;33304;52.456;13.328;2024-03-29T13:15:17;14.30;1.00
47576;DHT22;33304;52.456;13.328;2024-03-29T13:17:45;14.40;1.00
47576;DHT22;33304;52.456;13.328;2024-03-29T13:20:13;14.50;1.00
47576;DHT22;33304;52.456;13.328;2024-03-29T13:22:41;14.50;1.00
47576;DHT22;33304;52.456;13.328;2024-03-29T13:25:12;14.40;1.00
47576;DHT22;33304;52.456;13.328;2024-03-29T13:27:40;14.40;1.00
47576;DHT22;33304;52.456;13.328;2024-03-29T13:30:09;14.50;1.00
47576;DHT22;33304;52.456;13.328;2024-03-29T13:32:38;14.60;1.00
47576;DHT22;33304;52.456;13.328;2024-03-29T13:35:07;14.70;1.00
47576;DHT22;33304;52.456;13.328;2024-03-29T13:37:37;14.80;1.00
47576;DHT22;33304;52.456;13.328;2024-03-29T13:40:06;15.30;1.00
47576;DHT22;33304;52.456;13.328;2024-03-29T13:42:34;16.20;1.00
47576;DHT22;33304;52.456;13.328;2024-03-29T13:45:02;16.50;1.00
47576;DHT22;33304;52.456;13.328;2024-03-29T13:47:29;16.40;1.00
47576;DHT22;33304;52.456;13.328;2024-03-29T13:49:56;16.20;1.00
47576;DHT22;33304;52.456;13.328;2024-03-29T13:52:23;16.20;1.00
47576;DHT22;33304;52.456;13.328;2024-03-29T13:54:52;16.10;1.00
47576;DHT22;33304;52.456;13.328;2024-03-29T13:57:20;16.00;1.00
47576;DHT22;33304;52.456;13.328;2024-03-29T13:59:48;16.20;1.00
47576;DHT22;33304;52.456;13.328;2024-03-29T14:02:16;16.20;1.00
47576;DHT22;33304;52.456;13.328;2024-03-29T14:04:45;16.20;1.00
47576;DHT22;33304;52.456;13.328;2024-03-29T14:07:14;16.70;1.00
47576;DHT22;33304;52.456;13.328;2024-03-29T14:09:41;17.50;1.00
47576;DHT22;33304;52.456;13.328;2024-03-29T14:12:09;17.70;1.00
47576;DHT22;33304;52.456;13.328;2024-03-29T14:14:36;17.90;1.00
47576;DHT22;33304;52.456;13.328;2024-03-29T14:17:05;17.50;1.00
47576;DHT22;33304;52.456;13.328;2024-03-29T14:19:32;17.80;1.00
47576;DHT22;33304;52.456;13.328;2024-03-29T14:21:59;17.60;1.00
47576;DHT22;33304;52.456;13.328;2024-03-29T14:24:26;17.60;1.00
47576;DHT22;33304;52.456;13.328;2024-03-29T14:26:56;17.70;1.00
47576;DHT22;33304;52.456;13.328;2024-03-29T14:29:23;17.00;1.00
47576;DHT22;33304;52.456;13.328;2024-03-29T14:31:51;16.80;1.00
47576;DHT22;33304;52.456;13.328;2024-03-29T14:34:21;16.50;1.00
47576;DHT22;33304;52.456;13.328;2024-03-29T14:36:49;16.50;1.00
47576;DHT22;33304;52.456;13.328;2024-03-29T14:39:16;16.80;1.00
47576;DHT22;33304;52.456;13.328;2024-03-29T14:41:44;17.50;1.00
47576;DHT22;33304;52.456;13.328;2024-03-29T14:44:12;17.10;1.00
47576;DHT22;33304;52.456;13.328;2024-03-29T14:46:39;17.10;1.00
47576;DHT22;33304;52.456;13.328;2024-03-29T14:49:06;16.80;1.00
47576;DHT22;33304;52.456;13.328;2024-03-29T14:51:38;17.00;1.00
47576;DHT22;33304;52.456;13.328;2024-03-29T14:54:06;17.20;1.00
47576;DHT22;33304;52.456;13.328;2024-03-29T14:56:34;17.30;1.00
47576;DHT22;33304;52.456;13.328;2024-03-29T14:59:02;17.10;1.00
47576;DHT22;33304;52.456;13.328;2024-03-29T15:01:30;16.70;1.00
47576;DHT22;33304;52.456;13.328;2024-03-29T15:03:57;16.70;1.00
47576;DHT22;33304;52.456;13.328;2024-03-29T15:06:24;16.70;1.00
47576;DHT22;33304;52.456;13.328;2024-03-29T15:08:54;16.70;1.00
47576;DHT22;33304;52.456;13.328;2024-03-29T15:11:23;16.70;1.00
47576;DHT22;33304;52.456;13.328;2024-03-29T15:13:50;16.20;1.00
47576;DHT22;33304;52.456;13.328;2024-03-29T15:16:17;16.00;1.00
47576;DHT22;33304;52.456;13.328;2024-03-29T15:18:45;16.00;1.00
47576;DHT22;33304;52.456;13.328;2024-03-29T15:21:12;15.70;1.00
47576;DHT22;33304;52.456;13.328;2024-03-29T15:23:39;15.60;1.00
47576;DHT22;33304;52.456;13.328;2024-03-29T15:26:07;15.60;1.00
47576;DHT22;33304;52.456;13.328;2024-03-29T15:28:35;15.60;1.00
47576;DHT22;33304;52.456;13.328;2024-03-29T15:31:20;15.70;1.00
47576;DHT22;33304;52.456;13.328;2024-03-29T15:33:48;15.60;1.00